Time;durP1;ratioP1;P1;durP2;ratioP2;P2;SDS_P1;SDS_P2;PMS_P1;PMS_P2;Temp;Humidity;BMP_temperature;BMP_pressure;BME280_temperature;BME280_humidity;BME280_pressure;Samples;Min_cycle;Max_cycle;Signal;HPM_P1;HPM_P2
2022/07/11 00:00:18;;;;;;;8.27;3.20;;;24.30;94.70;;;;;;4995991;28;20045;-65
2022/07/11 00:02:45;;;;;;;7.65;2.97;;;24.20;94.60;;;;;;5029020;28;20503;-65
2022/07/11 00:05:13;;;;;;;5.72;2.70;;;24.20;94.70;;;;;;5030746;28;20054;-64
2022/07/11 00:07:41;;;;;;;8.23;3.65;;;24.10;94.70;;;;;;5013008;28;20041;-65
2022/07/11 00:10:08;;;;;;;7.10;3.50;;;24.20;94.80;;;;;;5030119;28;20470;-66
2022/07/11 00:12:36;;;;;;;5.97;3.05;;;24.10;94.80;;;;;;5012102;28;20046;-65
2022/07/11 00:15:04;;;;;;;7.57;3.15;;;24.10;94.90;;;;;;4995948;28;20199;-66
2022/07/11 00:17:32;;;;;;;6.35;3.00;;;24.00;95.10;;;;;;5030059;28;20216;-66
2022/07/11 00:19:59;;;;;;;4.65;2.70;;;24.00;95.10;;;;;;5027855;28;20048;-65
2022/07/11 00:22:27;;;;;;;6.25;2.45;;;24.00;95.30;;;;;;5013318;28;20103;-65
2022/07/11 00:24:55;;;;;;;4.35;2.95;;;24.00;95.40;;;;;;5028954;28;20474;-66
2022/07/11 00:27:22;;;;;;;5.15;2.33;;;24.00;95.50;;;;;;5012507;28;20686;-67
2022/07/11 00:29:50;;;;;;;7.43;2.70;;;24.00;95.70;;;;;;5028490;28;20054;-65
2022/07/11 00:32:18;;;;;;;8.57;3.13;;;24.00;95.90;;;;;;5046223;28;20527;-64
2022/07/11 00:34:45;;;;;;;5.05;2.33;;;24.00;95.90;;;;;;5016594;28;20069;-65
2022/07/11 00:37:13;;;;;;;4.38;2.03;;;24.00;95.90;;;;;;5016973;28;20087;-65
2022/07/11 00:39:41;;;;;;;7.15;2.50;;;24.10;96.00;;;;;;5032628;28;20071;-65
2022/07/11 00:42:08;;;;;;;6.10;2.53;;;24.10;96.10;;;;;;5032473;28;20059;-66
2022/07/11 00:44:38;;;;;;;4.10;2.13;;;24.10;96.10;;;;;;5016364;28;20053;-66
2022/07/11 00:47:06;;;;;;;3.55;2.22;;;24.10;96.20;;;;;;5033004;28;20049;-65
2022/07/11 00:49:33;;;;;;;6.07;2.03;;;24.10;96.10;;;;;;5016681;28;20120;-68
2022/07/11 00:52:02;;;;;;;19.67;3.35;;;24.10;96.20;;;;;;5048728;28;20118;-66
2022/07/11 00:54:30;;;;;;;4.85;2.10;;;24.10;96.40;;;;;;5015983;28;20136;-65
2022/07/11 00:56:58;;;;;;;7.53;2.58;;;24.10;96.40;;;;;;5032353;28;20124;-65
2022/07/11 00:59:27;;;;;;;6.97;2.63;;;24.10;96.40;;;;;;5016436;28;20525;-66
2022/07/11 01:01:55;;;;;;;7.30;1.83;;;24.10;96.50;;;;;;5033592;28;20396;-67
2022/07/11 01:04:22;;;;;;;6.57;2.30;;;24.10;96.50;;;;;;5033500;28;20581;-65
2022/07/11 01:06:51;;;;;;;5.50;2.33;;;24.20;96.70;;;;;;5048252;28;20372;-65
2022/07/11 01:09:19;;;;;;;5.30;2.28;;;24.10;96.60;;;;;;5048416;28;20057;-66
2022/07/11 01:11:46;;;;;;;3.92;2.00;;;24.10;96.80;;;;;;5049175;28;20499;-65
2022/07/11 01:14:14;;;;;;;4.25;2.17;;;24.20;96.90;;;;;;5029682;28;20060;-67
2022/07/11 01:16:41;;;;;;;8.90;2.60;;;24.20;96.90;;;;;;5032439;28;20103;-65
2022/07/11 01:19:09;;;;;;;5.45;2.25;;;24.20;97.00;;;;;;5032016;28;20057;-67
2022/07/11 01:21:38;;;;;;;5.97;3.03;;;24.20;97.10;;;;;;5032038;28;20049;-67
2022/07/11 01:24:07;;;;;;;4.63;2.33;;;24.20;97.20;;;;;;5032067;28;20160;-65
2022/07/11 01:26:36;;;;;;;6.55;2.50;;;24.20;97.20;;;;;;5015827;28;20049;-65
2022/07/11 01:29:07;;;;;;;5.93;2.22;;;24.20;97.30;;;;;;5015139;28;20054;-66
2022/07/11 01:31:37;;;;;;;6.70;2.80;;;24.20;97.30;;;;;;5032041;28;20058;-65
2022/07/11 01:34:05;;;;;;;4.93;2.30;;;24.20;97.30;;;;;;5048141;28;20041;-65
2022/07/11 01:36:33;;;;;;;9.15;2.58;;;24.20;97.30;;;;;;5015079;28;20055;-67
2022/07/11 01:39:00;;;;;;;6.90;3.42;;;24.20;97.40;;;;;;5031775;28;20056;-66
2022/07/11 01:41:28;;;;;;;6.03;2.88;;;24.20;97.40;;;;;;5031895;28;20519;-67
2022/07/11 01:43:56;;;;;;;4.65;2.22;;;24.20;97.40;;;;;;5030359;28;20077;-68
2022/07/11 01:46:24;;;;;;;4.47;2.08;;;24.20;97.50;;;;;;5031654;28;20506;-67
2022/07/11 01:48:51;;;;;;;6.65;2.08;;;24.20;97.50;;;;;;5031579;28;20065;-64
2022/07/11 01:51:19;;;;;;;5.25;1.95;;;24.20;97.50;;;;;;5048263;28;20045;-64
2022/07/11 01:53:46;;;;;;;4.10;2.40;;;24.20;97.50;;;;;;5031568;28;20045;-66
2022/07/11 01:56:14;;;;;;;7.40;2.80;;;24.20;97.60;;;;;;5046922;28;20567;-71
2022/07/11 01:58:44;;;;;;;7.20;2.22;;;24.20;97.60;;;;;;5030962;28;20111;-68
2022/07/11 02:01:12;;;;;;;4.85;2.13;;;24.20;97.70;;;;;;5047958;28;20069;-67
2022/07/11 02:03:39;;;;;;;11.32;3.20;;;24.20;97.70;;;;;;5014704;28;20053;-66
2022/07/11 02:06:08;;;;;;;4.07;1.90;;;24.20;97.80;;;;;;5031020;28;20377;-65
2022/07/11 02:08:36;;;;;;;3.80;2.40;;;24.20;97.90;;;;;;5026440;28;20045;-66
2022/07/11 02:11:04;;;;;;;4.10;2.30;;;24.20;97.90;;;;;;5011277;28;20046;-65
2022/07/11 02:13:32;;;;;;;8.45;3.22;;;24.20;97.90;;;;;;5011496;28;20049;-65
2022/07/11 02:15:59;;;;;;;8.15;2.22;;;24.20;98.00;;;;;;5011180;28;20100;-66
2022/07/11 02:18:27;;;;;;;6.82;3.08;;;24.10;98.10;;;;;;5027403;28;20491;-66
2022/07/11 02:20:55;;;;;;;4.72;2.20;;;24.20;98.20;;;;;;5011632;28;20046;-65
2022/07/11 02:23:22;;;;;;;5.55;2.55;;;24.10;98.20;;;;;;5011558;28;20042;-66
2022/07/11 02:25:51;;;;;;;7.25;2.25;;;24.10;98.30;;;;;;5011004;28;20522;-66
2022/07/11 02:28:19;;;;;;;17.63;3.70;;;24.10;98.40;;;;;;5010981;28;20058;-67
2022/07/11 02:30:46;;;;;;;5.47;2.20;;;24.10;98.50;;;;;;4994363;28;20077;-65
2022/07/11 02:33:15;;;;;;;5.05;2.17;;;24.00;98.60;;;;;;5027363;28;20396;-67
2022/07/11 02:35:44;;;;;;;6.07;2.40;;;24.00;98.60;;;;;;4994882;28;20149;-65
2022/07/11 02:38:12;;;;;;;6.50;3.05;;;24.10;98.70;;;;;;5026844;28;20132;-66
2022/07/11 02:40:39;;;;;;;9.40;2.60;;;24.10;98.80;;;;;;5011622;28;20042;-67
2022/07/11 02:43:07;;;;;;;6.38;2.33;;;24.10;98.80;;;;;;5010938;28;20488;-64
2022/07/11 02:45:36;;;;;;;5.65;2.78;;;24.10;98.90;;;;;;5027410;28;20058;-66
2022/07/11 02:48:04;;;;;;;8.55;3.28;;;24.00;98.90;;;;;;5027135;28;20108;-66
2022/07/11 02:50:32;;;;;;;7.32;2.28;;;24.00;99.10;;;;;;4994600;28;20057;-65
2022/07/11 02:53:00;;;;;;;8.70;3.38;;;24.00;99.10;;;;;;4994388;28;20049;-67
2022/07/11 02:55:28;;;;;;;6.90;2.70;;;24.00;99.20;;;;;;5010257;28;20046;-66
2022/07/11 02:57:55;;;;;;;6.35;3.00;;;24.00;99.30;;;;;;5037538;28;20533;-65
2022/07/11 03:00:23;;;;;;;5.57;2.10;;;24.00;99.40;;;;;;5043753;28;20042;-66
2022/07/11 03:02:50;;;;;;;6.97;2.47;;;24.00;99.70;;;;;;5013371;28;20060;-64
2022/07/11 03:05:18;;;;;;;4.45;3.20;;;24.00;99.50;;;;;;4994291;28;20136;-65
2022/07/11 03:07:46;;;;;;;4.70;2.83;;;24.00;99.60;;;;;;5009967;28;20072;-66
2022/07/11 03:10:13;;;;;;;7.35;2.58;;;24.10;99.60;;;;;;5026478;28;20088;-66
2022/07/11 03:12:41;;;;;;;8.60;2.75;;;24.10;99.70;;;;;;5011292;28;20049;-66
2022/07/11 03:15:09;;;;;;;8.63;3.47;;;24.10;99.70;;;;;;5010120;28;20046;-65
2022/07/11 03:17:37;;;;;;;5.88;2.40;;;24.10;99.70;;;;;;5009561;28;20587;-64
2022/07/11 03:20:06;;;;;;;7.38;2.88;;;24.00;99.70;;;;;;5010231;28;20041;-64
2022/07/11 03:22:34;;;;;;;8.32;2.80;;;24.00;99.80;;;;;;5010349;28;20056;-65
2022/07/11 03:25:05;;;;;;;7.18;2.80;;;24.00;99.90;;;;;;5010486;28;20527;-65
2022/07/11 03:27:34;;;;;;;7.72;2.97;;;24.00;99.90;;;;;;5009954;28;20080;-66
2022/07/11 03:30:03;;;;;;;8.73;2.60;;;24.00;99.90;;;;;;5009669;28;20476;-64
2022/07/11 03:32:30;;;;;;;6.47;2.67;;;24.00;99.90;;;;;;5011230;28;20096;-65
2022/07/11 03:37:45;;;;;;;5.50;2.30;;;24.00;99.90;;;;;;5010056;28;20046;-65
2022/07/11 03:40:13;;;;;;;5.40;2.58;;;24.00;99.90;;;;;;5009910;28;20408;-66
2022/07/11 03:42:41;;;;;;;8.55;3.78;;;24.00;99.90;;;;;;4993640;28;20120;-65
2022/07/11 03:45:09;;;;;;;11.35;3.67;;;24.00;99.90;;;;;;5009990;28;20053;-65
2022/07/11 03:47:39;;;;;;;5.15;2.67;;;24.00;99.90;;;;;;5017326;28;20041;-66
2022/07/11 03:50:07;;;;;;;5.78;2.63;;;24.00;99.90;;;;;;5013222;28;20057;-65
2022/07/11 03:52:34;;;;;;;3.88;2.70;;;24.10;99.90;;;;;;5028930;28;20046;-64
2022/07/11 03:55:02;;;;;;;8.32;3.25;;;24.10;99.90;;;;;;5045490;28;20045;-66
2022/07/11 03:57:29;;;;;;;8.02;3.50;;;24.20;99.90;;;;;;5030404;28;20073;-65
2022/07/11 03:59:57;;;;;;;5.55;2.85;;;24.20;99.90;;;;;;5029588;28;20058;-65
2022/07/11 04:02:25;;;;;;;8.80;2.55;;;24.30;99.90;;;;;;5029148;28;20049;-66
2022/07/11 04:04:52;;;;;;;10.00;3.40;;;24.40;99.90;;;;;;5029058;28;20168;-67
2022/07/11 04:07:20;;;;;;;6.18;2.75;;;24.40;99.90;;;;;;5011870;28;20053;-65
2022/07/11 04:09:48;;;;;;;8.38;3.25;;;24.50;99.90;;;;;;5045529;28;20041;-65
2022/07/11 04:12:18;;;;;;;6.35;3.17;;;24.60;99.90;;;;;;5012625;28;20049;-65
2022/07/11 04:14:46;;;;;;;9.95;3.20;;;24.60;99.90;;;;;;5014311;28;20069;-66
2022/07/11 04:17:13;;;;;;;10.07;3.47;;;24.70;99.90;;;;;;5029262;28;20152;-65
2022/07/11 04:19:42;;;;;;;8.82;3.47;;;24.80;99.90;;;;;;4986529;28;20080;-66
2022/07/11 04:22:10;;;;;;;7.88;2.65;;;24.90;99.90;;;;;;4994838;28;20407;-65
2022/07/11 04:24:38;;;;;;;6.15;2.92;;;25.00;99.80;;;;;;5023666;28;20046;-66
2022/07/11 04:27:05;;;;;;;6.85;2.80;;;25.10;99.60;;;;;;4995067;28;20052;-65
2022/07/11 04:29:33;;;;;;;8.15;4.10;;;25.10;99.40;;;;;;5011185;28;20057;-66
2022/07/11 04:32:00;;;;;;;8.25;2.67;;;25.20;99.00;;;;;;5028757;28;20288;-66
2022/07/11 04:34:28;;;;;;;6.22;3.47;;;25.40;98.70;;;;;;5029762;28;20044;-67
2022/07/11 04:36:55;;;;;;;8.23;3.70;;;25.50;98.30;;;;;;5028947;28;20045;-65
2022/07/11 04:39:24;;;;;;;4.32;3.05;;;25.60;97.80;;;;;;5028950;28;20147;-65
2022/07/11 04:41:53;;;;;;;9.10;4.18;;;25.60;96.80;;;;;;5026932;28;20037;-65
2022/07/11 04:44:21;;;;;;;20.02;4.63;;;25.70;96.50;;;;;;5028790;28;20136;-65
2022/07/11 04:46:48;;;;;;;3.95;2.75;;;25.80;96.00;;;;;;5029931;28;20076;-67
2022/07/11 04:49:16;;;;;;;7.20;4.18;;;26.00;95.60;;;;;;5030344;28;20561;-65
2022/07/11 04:51:44;;;;;;;7.22;3.08;;;26.10;95.20;;;;;;5012050;28;20058;-66
2022/07/11 04:54:11;;;;;;;5.93;3.17;;;26.20;94.80;;;;;;5008528;28;20046;-67
2022/07/11 04:56:39;;;;;;;3.88;2.95;;;26.30;94.50;;;;;;5009289;28;20439;-67
2022/07/11 04:59:07;;;;;;;6.18;2.80;;;26.50;94.50;;;;;;5025714;28;20077;-65
2022/07/11 05:01:35;;;;;;;8.13;2.88;;;26.50;94.30;;;;;;5009184;28;20042;-65
2022/07/11 05:04:03;;;;;;;5.47;3.10;;;26.70;94.20;;;;;;5025289;28;20132;-67
2022/07/11 05:06:31;;;;;;;6.70;4.18;;;26.80;94.10;;;;;;5009231;28;20041;-66
2022/07/11 05:08:58;;;;;;;6.13;2.83;;;26.90;94.10;;;;;;5008859;28;20092;-66
2022/07/11 05:11:26;;;;;;;3.90;2.50;;;27.00;94.00;;;;;;4992512;28;20046;-65
2022/07/11 05:13:55;;;;;;;4.88;2.30;;;27.10;94.10;;;;;;5009245;28;20575;-65
2022/07/11 05:16:23;;;;;;;5.88;2.70;;;27.20;94.20;;;;;;4992668;28;20172;-66
2022/07/11 05:18:50;;;;;;;5.95;2.78;;;27.30;94.20;;;;;;5011960;28;20061;-65
2022/07/11 05:21:23;;;;;;;5.45;2.67;;;27.40;94.40;;;;;;5028810;28;20050;-66
2022/07/11 05:23:51;;;;;;;8.20;2.75;;;27.50;94.60;;;;;;5012549;28;20038;-66
2022/07/11 05:26:20;;;;;;;6.38;2.90;;;27.60;94.80;;;;;;4995863;28;20104;-65
2022/07/11 05:28:47;;;;;;;4.00;2.60;;;27.60;95.00;;;;;;5028413;28;20046;-67
2022/07/11 05:31:15;;;;;;;5.80;2.85;;;27.70;95.00;;;;;;5013265;28;20170;-66
2022/07/11 05:33:43;;;;;;;9.68;2.80;;;27.80;95.10;;;;;;5027768;28;20046;-65
2022/07/11 05:36:11;;;;;;;5.32;2.20;;;27.80;95.10;;;;;;4995400;28;20057;-67
2022/07/11 05:38:38;;;;;;;7.80;3.10;;;27.80;94.90;;;;;;5044840;28;20095;-66
2022/07/11 05:41:06;;;;;;;7.38;2.80;;;27.80;95.10;;;;;;5032269;28;20057;-68
2022/07/11 05:43:34;;;;;;;6.00;2.22;;;28.00;95.10;;;;;;5031469;28;20136;-65
2022/07/11 05:46:05;;;;;;;7.55;2.92;;;28.10;94.80;;;;;;5014829;28;20045;-64
2022/07/11 05:48:33;;;;;;;10.27;2.58;;;28.20;94.60;;;;;;5031545;28;20123;-65
2022/07/11 05:51:00;;;;;;;6.60;3.35;;;28.30;94.50;;;;;;5032824;28;20038;-66
2022/07/11 05:53:28;;;;;;;7.07;2.20;;;28.40;94.20;;;;;;5031339;28;20456;-66
2022/07/11 05:55:55;;;;;;;4.28;2.15;;;28.50;93.50;;;;;;5013943;28;20496;-68
2022/07/11 05:58:23;;;;;;;9.32;3.35;;;28.50;93.00;;;;;;5033107;28;20053;-65
2022/07/11 06:00:51;;;;;;;5.55;2.63;;;28.60;92.70;;;;;;5047940;28;20474;-66
2022/07/11 06:03:18;;;;;;;4.93;2.30;;;28.80;92.70;;;;;;5015069;28;20136;-68
2022/07/11 06:05:46;;;;;;;6.13;3.28;;;28.80;92.50;;;;;;5031401;28;20056;-66
2022/07/11 06:10:59;;;;;;;5.20;2.47;;;29.10;91.90;;;;;;5032316;28;20046;-65
2022/07/11 06:13:29;;;;;;;5.25;2.22;;;29.20;91.80;;;;;;5015047;28;20052;-64
2022/07/11 06:15:57;;;;;;;5.25;3.17;;;29.30;91.60;;;;;;5047243;28;20495;-65
2022/07/11 06:18:25;;;;;;;5.57;3.17;;;29.40;91.00;;;;;;5047164;28;20037;-65
2022/07/11 06:20:53;;;;;;;4.68;2.72;;;29.40;90.60;;;;;;5032310;28;20053;-68
2022/07/11 06:23:20;;;;;;;4.47;2.28;;;29.50;90.40;;;;;;5031165;28;20483;-65
2022/07/11 06:25:48;;;;;;;5.75;3.00;;;29.60;90.00;;;;;;5047296;28;20490;-65
2022/07/11 06:28:16;;;;;;;5.82;3.03;;;29.50;89.00;;;;;;5030931;28;20046;-66
2022/07/11 06:30:44;;;;;;;6.32;2.88;;;29.50;88.40;;;;;;5037457;28;20377;-66
2022/07/11 06:33:11;;;;;;;4.68;2.50;;;29.70;88.80;;;;;;5012127;28;20046;-65
2022/07/11 06:35:39;;;;;;;5.13;2.90;;;29.70;89.00;;;;;;5011807;28;20046;-65
2022/07/11 06:38:07;;;;;;;4.45;2.70;;;29.80;88.80;;;;;;5011740;28;20046;-66
2022/07/11 06:40:35;;;;;;;5.38;2.70;;;29.90;88.40;;;;;;5010878;28;20052;-67
2022/07/11 06:43:04;;;;;;;5.68;2.60;;;29.90;87.50;;;;;;5012101;28;20050;-66
2022/07/11 06:45:33;;;;;;;4.32;2.83;;;30.00;87.20;;;;;;5012118;28;20050;-66
2022/07/11 06:48:01;;;;;;;5.20;3.10;;;30.00;86.70;;;;;;5012109;28;20042;-66
2022/07/11 06:50:29;;;;;;;4.97;2.65;;;30.00;86.60;;;;;;5010792;28;20049;-65
2022/07/11 06:52:56;;;;;;;4.47;2.83;;;30.00;86.30;;;;;;5010548;28;20073;-65
2022/07/11 06:55:24;;;;;;;5.15;2.67;;;30.10;85.50;;;;;;5011844;28;20046;-65
2022/07/11 06:57:52;;;;;;;6.25;2.88;;;30.00;83.50;;;;;;5010511;28;20408;-66
2022/07/11 07:00:34;;;;;;;3.85;2.60;;;30.00;82.40;;;;;;5027343;28;20071;-65
2022/07/11 07:03:02;;;;;;;5.75;2.63;;;30.10;82.50;;;;;;5010565;28;20042;-66
2022/07/11 07:05:30;;;;;;;5.43;2.78;;;30.00;82.20;;;;;;5011259;28;20078;-66
2022/07/11 07:07:57;;;;;;;3.90;2.40;;;30.10;81.20;;;;;;5010229;28;20049;-66
2022/07/11 07:10:25;;;;;;;3.67;2.80;;;30.10;79.80;;;;;;5010219;28;20100;-67
2022/07/11 07:12:53;;;;;;;4.57;3.38;;;30.00;80.50;;;;;;5011535;28;20041;-65
2022/07/11 07:15:20;;;;;;;4.13;3.15;;;30.00;80.80;;;;;;5011196;28;20189;-66
2022/07/11 07:17:48;;;;;;;7.20;3.08;;;30.10;81.10;;;;;;4994008;28;20046;-65
2022/07/11 07:20:15;;;;;;;5.00;2.90;;;30.30;81.30;;;;;;5025967;28;20527;-65
2022/07/11 07:22:43;;;;;;;4.97;2.38;;;30.40;80.70;;;;;;5011221;28;20042;-66
2022/07/11 07:25:10;;;;;;;3.55;2.15;;;30.50;80.50;;;;;;5027479;28;20052;-66
2022/07/11 07:28:12;;;;;;;4.20;2.33;;;30.60;79.20;;;;;;5030011;28;20041;-65
2022/07/11 07:30:54;;;;;;;4.18;2.78;;;30.70;78.80;;;;;;5026288;28;20087;-66
2022/07/11 07:37:11;;;;;;;3.42;2.17;;;30.70;77.40;;;;;;5012882;28;20057;-65
2022/07/11 07:39:38;;;;;;;5.75;3.13;;;30.90;76.10;;;;;;5029872;28;20116;-65
2022/07/11 07:42:06;;;;;;;3.83;2.42;;;30.90;76.30;;;;;;5029582;28;20096;-65
2022/07/11 07:44:34;;;;;;;5.43;2.22;;;31.10;76.50;;;;;;5029569;28;20044;-66
2022/07/11 07:47:02;;;;;;;4.72;2.42;;;31.10;75.60;;;;;;5029415;28;20447;-66
2022/07/11 07:49:30;;;;;;;4.20;2.33;;;31.00;75.00;;;;;;5029519;28;20077;-65
2022/07/11 07:51:57;;;;;;;6.28;2.13;;;30.90;75.10;;;;;;5028978;28;20856;-66
2022/07/11 07:54:25;;;;;;;3.50;2.25;;;30.90;76.00;;;;;;5029199;28;20159;-66
2022/07/11 07:56:53;;;;;;;3.17;2.25;;;30.90;75.20;;;;;;5029177;28;20060;-65
2022/07/11 07:59:24;;;;;;;3.53;2.50;;;30.80;74.70;;;;;;5029504;28;20049;-65
2022/07/11 08:01:52;;;;;;;3.22;2.40;;;30.80;74.60;;;;;;4996661;28;20045;-66
2022/07/11 08:04:20;;;;;;;4.10;2.72;;;30.90;73.70;;;;;;5013072;28;20045;-67
2022/07/11 08:06:48;;;;;;;5.85;2.17;;;30.90;74.80;;;;;;5028851;28;20118;-67
2022/07/11 08:09:15;;;;;;;4.18;2.55;;;30.90;75.90;;;;;;5029391;28;20041;-65
2022/07/11 08:11:46;;;;;;;6.63;2.50;;;30.90;75.20;;;;;;5027109;28;20042;-65
2022/07/11 08:14:13;;;;;;;4.07;2.78;;;30.90;76.00;;;;;;5030379;28;20045;-65
2022/07/11 08:16:41;;;;;;;4.43;2.30;;;31.00;76.30;;;;;;5030486;28;20488;-68
2022/07/11 08:19:11;;;;;;;3.67;2.15;;;31.00;76.90;;;;;;5030192;28;20052;-66
2022/07/11 08:21:38;;;;;;;8.07;2.65;;;31.10;75.80;;;;;;5030433;28;20091;-65
2022/07/11 08:24:06;;;;;;;4.78;2.00;;;31.30;74.30;;;;;;5030231;28;20049;-65
2022/07/11 08:26:34;;;;;;;4.90;2.60;;;31.40;74.90;;;;;;5029630;28;20124;-65
2022/07/11 08:29:04;;;;;;;3.63;2.30;;;31.40;74.70;;;;;;5012680;28;20131;-68
2022/07/11 08:31:32;;;;;;;3.83;2.17;;;31.40;74.00;;;;;;5045517;28;20053;-65
2022/07/11 08:34:00;;;;;;;3.38;2.33;;;31.60;73.80;;;;;;5028475;28;20038;-65
2022/07/11 08:36:34;;;;;;;3.60;2.00;;;31.50;72.90;;;;;;5028920;28;20056;-66
2022/07/11 08:39:02;;;;;;;3.20;1.85;;;31.60;71.60;;;;;;5028848;28;20045;-65
2022/07/11 08:41:31;;;;;;;3.20;2.72;;;31.70;71.40;;;;;;5028751;28;20053;-65
2022/07/11 08:44:00;;;;;;;3.90;2.00;;;31.70;71.60;;;;;;5012176;28;20380;-66
2022/07/11 08:46:29;;;;;;;2.90;1.92;;;31.80;72.10;;;;;;5045256;28;20458;-65
2022/07/11 08:48:59;;;;;;;3.35;1.70;;;31.80;71.30;;;;;;5045031;28;20084;-69
2022/07/11 08:51:27;;;;;;;2.45;1.88;;;31.80;69.50;;;;;;5028924;28;20064;-66
2022/07/11 08:53:55;;;;;;;3.28;1.88;;;31.80;70.90;;;;;;5047256;28;20069;-67
2022/07/11 08:56:24;;;;;;;2.75;1.83;;;32.00;70.50;;;;;;5032108;28;20040;-65
2022/07/11 08:58:53;;;;;;;2.92;1.85;;;32.00;70.00;;;;;;5041257;28;20038;-65
2022/07/11 09:01:33;;;;;;;4.35;2.00;;;31.90;70.10;;;;;;5013402;28;20045;-65
2022/07/11 09:04:01;;;;;;;3.40;1.80;;;31.80;71.90;;;;;;5013483;28;20476;-66
2022/07/11 09:06:29;;;;;;;9.30;2.15;;;31.80;70.80;;;;;;4996498;28;20057;-65
2022/07/11 09:09:00;;;;;;;2.85;1.70;;;31.90;70.50;;;;;;5012594;28;20053;-65
2022/07/11 09:11:47;;;;;;;4.05;1.88;;;31.90;70.20;;;;;;5012334;28;20126;-65
2022/07/11 09:14:31;;;;;;;2.75;1.50;;;31.90;69.50;;;;;;5013321;28;20556;-65
2022/07/11 09:17:04;;;;;;;2.30;1.55;;;31.90;70.80;;;;;;5012561;28;20496;-67
2022/07/11 09:19:39;;;;;;;5.35;2.10;;;31.90;71.60;;;;;;4996447;28;20046;-65
2022/07/11 09:27:52;;;;;;;3.03;1.80;;;31.80;71.90;;;;;;5013216;28;20050;-66
2022/07/11 09:30:20;;;;;;;2.85;1.70;;;31.80;72.20;;;;;;4995437;28;20568;-65
2022/07/11 09:32:57;;;;;;;2.65;1.60;;;31.60;70.70;;;;;;5012241;28;20045;-65
2022/07/11 09:35:27;;;;;;;3.17;2.13;;;31.60;71.90;;;;;;5028692;28;20132;-66
2022/07/11 09:37:54;;;;;;;3.95;1.67;;;31.60;71.20;;;;;;5012493;28;20129;-65
2022/07/11 09:40:25;;;;;;;3.60;1.63;;;31.70;71.50;;;;;;5012349;28;20038;-69
2022/07/11 09:42:54;;;;;;;3.55;1.42;;;31.70;70.60;;;;;;5012303;28;20057;-70
2022/07/11 09:45:27;;;;;;;3.15;1.45;;;31.70;70.70;;;;;;4990047;28;20065;-66
2022/07/11 09:48:00;;;;;;;3.58;1.55;;;31.60;71.00;;;;;;5013293;28;20583;-67
2022/07/11 09:50:30;;;;;;;3.90;2.25;;;31.60;70.90;;;;;;4995942;28;20137;-66
2022/07/11 09:53:18;;;;;;;3.65;1.73;;;31.60;70.90;;;;;;5012275;28;20054;-66
2022/07/11 09:55:46;;;;;;;2.55;1.60;;;31.50;70.40;;;;;;5011827;28;20718;-66
2022/07/11 09:58:21;;;;;;;3.50;2.55;;;31.30;69.90;;;;;;5012164;28;20069;-68
2022/07/11 10:00:51;;;;;;;3.78;1.92;;;31.30;70.70;;;;;;5012713;28;20046;-65
2022/07/11 10:03:25;;;;;;;3.13;1.60;;;31.20;70.20;;;;;;5012950;28;20168;-66
2022/07/11 10:06:12;;;;;;;2.65;1.50;;;31.20;71.30;;;;;;5011978;28;20046;-66
2022/07/11 10:08:40;;;;;;;2.28;1.35;;;31.40;70.40;;;;;;4995230;28;20097;-68
2022/07/11 10:11:08;;;;;;;4.85;2.13;;;31.40;70.50;;;;;;5028161;28;20045;-66
2022/07/11 10:13:37;;;;;;;4.95;1.85;;;31.40;70.70;;;;;;5012567;28;20046;-66
2022/07/11 10:16:24;;;;;;;3.35;1.60;;;31.50;70.90;;;;;;5011217;28;20466;-66
2022/07/11 10:19:16;;;;;;;4.97;1.55;;;31.50;70.80;;;;;;5012719;28;20049;-67
2022/07/11 10:21:44;;;;;;;2.08;1.40;;;31.40;70.40;;;;;;5012878;28;20042;-65
2022/07/11 10:24:30;;;;;;;4.63;1.80;;;31.20;70.20;;;;;;5010865;28;20053;-67
2022/07/11 10:27:00;;;;;;;2.85;1.85;;;31.20;70.10;;;;;;5011051;28;20443;-66
2022/07/11 10:29:54;;;;;;;4.50;2.15;;;31.00;70.30;;;;;;5029277;28;20050;-68
2022/07/11 10:32:22;;;;;;;3.08;1.80;;;31.00;70.40;;;;;;4994889;28;20072;-67
2022/07/11 10:35:09;;;;;;;4.40;2.10;;;31.10;70.90;;;;;;5011046;28;20045;-68
2022/07/11 10:37:52;;;;;;;10.93;2.25;;;30.90;72.00;;;;;;5012418;28;20045;-65
2022/07/11 10:40:46;;;;;;;6.00;2.08;;;30.90;71.90;;;;;;5032029;28;20046;-65
2022/07/11 10:43:22;;;;;;;3.80;1.77;;;31.00;71.10;;;;;;5031218;28;20045;-67
2022/07/11 10:46:02;;;;;;;3.35;1.65;;;31.00;69.30;;;;;;5030700;28;20085;-66
2022/07/11 10:48:32;;;;;;;4.03;1.88;;;31.00;69.50;;;;;;5030470;28;20048;-66
2022/07/11 10:51:01;;;;;;;2.85;2.15;;;30.90;68.80;;;;;;5030689;28;20092;-65
2022/07/11 10:53:36;;;;;;;4.47;1.70;;;31.00;71.30;;;;;;5030675;28;20136;-66
2022/07/11 10:56:27;;;;;;;4.85;1.70;;;30.80;69.70;;;;;;5029996;28;20060;-65
2022/07/11 10:59:17;;;;;;;2.58;1.60;;;30.90;69.20;;;;;;5031876;28;20037;-65
2022/07/11 11:02:07;;;;;;;4.00;2.20;;;30.70;70.70;;;;;;5014469;28;20049;-65
2022/07/11 11:04:46;;;;;;;2.95;1.92;;;30.70;70.60;;;;;;5031740;28;20046;-65
2022/07/11 11:07:36;;;;;;;3.45;2.20;;;30.80;70.40;;;;;;5030187;28;20049;-68
2022/07/11 11:10:17;;;;;;;4.25;2.08;;;30.80;69.70;;;;;;5030016;28;20456;-68
2022/07/11 11:13:04;;;;;;;5.38;2.03;;;30.90;68.20;;;;;;5014106;28;20124;-69
2022/07/11 11:15:39;;;;;;;3.35;1.55;;;30.80;68.50;;;;;;5013846;28;20049;-67
2022/07/11 11:18:25;;;;;;;2.88;1.45;;;30.90;67.60;;;;;;5029914;28;20562;-66
2022/07/11 11:21:06;;;;;;;2.47;1.40;;;30.90;64.80;;;;;;5013918;28;20139;-66
2022/07/11 11:23:36;;;;;;;4.57;1.48;;;31.00;62.90;;;;;;5030674;28;20495;-65
2022/07/11 11:26:11;;;;;;;2.97;1.75;;;30.90;65.00;;;;;;5029970;28;20045;-66
2022/07/11 11:28:58;;;;;;;2.15;1.50;;;30.80;66.20;;;;;;5030978;28;20132;-65
2022/07/11 11:31:27;;;;;;;2.83;1.80;;;30.70;66.00;;;;;;5028497;28;20775;-65
2022/07/11 11:33:55;;;;;;;2.58;1.42;;;30.70;67.00;;;;;;5029876;28;20049;-65
2022/07/11 11:36:25;;;;;;;3.55;1.30;;;30.70;65.90;;;;;;5029954;28;20452;-65
2022/07/11 11:38:52;;;;;;;2.20;1.20;;;30.70;63.60;;;;;;5029865;28;20041;-65
2022/07/11 11:41:25;;;;;;;3.85;1.65;;;30.70;64.10;;;;;;5029426;28;20824;-65
2022/07/11 11:43:55;;;;;;;3.03;1.35;;;30.70;65.50;;;;;;5030992;28;20057;-65
2022/07/11 11:46:28;;;;;;;5.07;1.48;;;30.80;65.40;;;;;;5029061;28;20523;-65
2022/07/11 11:49:01;;;;;;;2.45;1.15;;;30.70;64.80;;;;;;5029620;28;20049;-65
2022/07/11 11:51:31;;;;;;;2.20;1.10;;;30.60;63.90;;;;;;5029711;28;20132;-66
2022/07/11 11:54:02;;;;;;;2.35;1.50;;;30.60;63.80;;;;;;5029418;28;20049;-69
2022/07/11 11:56:30;;;;;;;2.30;1.50;;;30.60;64.40;;;;;;5029715;28;20496;-65
2022/07/11 11:59:00;;;;;;;2.60;1.63;;;30.50;66.90;;;;;;5029576;28;20048;-67
2022/07/11 12:01:33;;;;;;;3.65;1.65;;;30.50;66.90;;;;;;5030380;28;20056;-65
2022/07/11 12:04:07;;;;;;;3.80;1.50;;;30.50;64.40;;;;;;5030462;28;20048;-67
2022/07/11 12:06:37;;;;;;;3.53;1.50;;;30.40;64.70;;;;;;5029674;28;20403;-66
2022/07/11 12:09:10;;;;;;;2.90;1.50;;;30.50;66.20;;;;;;5029287;28;20042;-66
2022/07/11 12:11:40;;;;;;;3.22;1.60;;;30.50;66.40;;;;;;5045805;28;20033;-66
2022/07/11 12:14:09;;;;;;;4.20;1.38;;;30.40;66.40;;;;;;5029267;28;20042;-66
2022/07/11 12:16:49;;;;;;;5.93;2.10;;;30.40;67.20;;;;;;5030511;28;20045;-66
2022/07/11 12:19:21;;;;;;;2.38;1.50;;;30.40;66.70;;;;;;5013325;28;20674;-68
2022/07/11 12:21:54;;;;;;;2.45;2.05;;;30.50;65.60;;;;;;5030335;28;20088;-65
2022/07/11 12:24:29;;;;;;;2.25;1.40;;;30.40;65.90;;;;;;5029852;28;20442;-67
2022/07/11 12:26:57;;;;;;;2.95;1.83;;;30.30;66.60;;;;;;5027270;28;20419;-66
2022/07/11 12:29:27;;;;;;;3.70;1.60;;;30.20;66.50;;;;;;5048568;28;20069;-66
2022/07/11 12:32:11;;;;;;;2.53;1.55;;;30.20;67.50;;;;;;5033902;28;20049;-65
2022/07/11 12:34:39;;;;;;;1.73;1.25;;;30.20;66.80;;;;;;5034202;28;20042;-66
2022/07/11 12:37:13;;;;;;;2.30;1.42;;;30.20;67.00;;;;;;5033089;28;20499;-67
2022/07/11 12:39:51;;;;;;;2.63;1.50;;;30.10;67.30;;;;;;5033190;28;20053;-67
2022/07/11 12:42:24;;;;;;;3.30;1.30;;;30.00;67.90;;;;;;5034253;28;20128;-67
2022/07/11 12:44:59;;;;;;;2.45;1.58;;;29.90;68.50;;;;;;5033171;28;20093;-66
2022/07/11 12:47:28;;;;;;;1.60;1.27;;;29.80;68.90;;;;;;5016757;28;20056;-66
2022/07/11 12:49:56;;;;;;;3.83;1.80;;;29.80;69.10;;;;;;5032341;28;20045;-67
2022/07/11 12:52:36;;;;;;;2.15;1.58;;;29.90;69.20;;;;;;5032923;28;20050;-66
2022/07/11 12:55:07;;;;;;;2.25;1.52;;;30.00;69.80;;;;;;5032708;28;20450;-65
2022/07/11 12:57:35;;;;;;;2.90;1.48;;;30.10;69.70;;;;;;5032341;28;20045;-66
2022/07/11 13:00:20;;;;;;;2.28;1.42;;;30.00;69.30;;;;;;5048968;28;20042;-66
2022/07/11 13:02:51;;;;;;;3.47;2.15;;;29.90;70.00;;;;;;5032878;28;20550;-66
2022/07/11 13:05:19;;;;;;;3.20;2.05;;;29.80;70.00;;;;;;5032548;28;20470;-66
2022/07/11 13:13:33;;;;;;;3.40;1.30;;;29.60;70.30;;;;;;5032850;28;20020;-67
2022/07/11 13:16:02;;;;;;;3.78;1.88;;;29.60;69.70;;;;;;5031249;28;20509;-66
2022/07/11 13:18:30;;;;;;;2.38;1.35;;;29.50;69.30;;;;;;5048014;28;20545;-66
2022/07/11 13:20:58;;;;;;;3.22;1.70;;;29.40;69.80;;;;;;5032696;28;20060;-65